Terminal Aerodrome Forecast
Issued by NWS St Louis, MO

Home | Current Version | Previous Version | Text Only | Print | Product List | Glossary On
Versions: 1 2 3 4 5 6 7 8 9 10 11 12 13 14 15 16 17 18 19 20 21 22 23 24 25 26 27 28 29 30
000
FTUS43 KLSX 152109 AAA
TAFSTL
TAF AMD
KSTL 152109Z 1521/1624 27012G20KT P6SM SCT050 BKN120
     FM152300 27011G17KT 5SM -SHRA VCTS OVC050CB
     FM160200 32012KT P6SM VCSH OVC080
     FM160700 33015G23KT P6SM VCSH OVC025
     FM161800 34011KT P6SM SCT250=

USA.gov is the U.S. government's official web portal to all federal, state and local government web resources and services.